WetterOnline ( https://www.wetteronline.de )

Wetter aktuell Kiedrich

Aktuelles Wetter: Geisenheim (110m)

6-stündlich | Neueste Meldungen
Ortszeit Temperatur Wetter
Mo, 26.10. 19:00 9.3° C wolkig
Mo, 26.10. 13:00 11.7° C wolkig
Mo, 26.10. 7:00 10.4° C leichter Regen
Mo, 26.10. 1:00 10.7° C leichter Regen
So, 25.10. 19:00 12.0° C leichter Regen
So, 25.10. 13:00 15.5° C bewölkt
So, 25.10. 7:00 9.1° C bewölkt
So, 25.10. 2:00 12.4° C bedeckt
Ortszeit Temperatur Wetter
Mo, 26.10. 23:10 7.3° C fast wolkenlos
Mo, 26.10. 23:00 7.7° C wolkig
Mo, 26.10. 22:50 7.7° C wolkig
Mo, 26.10. 22:40 7.8° C bedeckt
Mo, 26.10. 22:30 7.4° C bewölkt
Mo, 26.10. 22:20 7.4° C bewölkt
Mo, 26.10. 22:00 7.7° C bewölkt
Mo, 26.10. 21:30 7.6° C wolkig
Mo, 26.10. 21:00 6.6° C wolkenlos
Mo, 26.10. 20:30 8.0° C wolkenlos
Mo, 26.10. 20:00 7.4° C wolkenlos
Ortszeit Relative Feuchte Sichtweite
Mo, 26.10. 19:00 80% 50 km
Mo, 26.10. 13:00 72% >70 km
Mo, 26.10. 7:00 95% 40 km
Mo, 26.10. 1:00 95% 24 km
So, 25.10. 19:00 93% 35 km
So, 25.10. 13:00 64% 55 km
So, 25.10. 7:00 91% 50 km
So, 25.10. 2:00 84% 65 km
Ortszeit Relative Feuchte Sichtweite
Mo, 26.10. 23:10 91% -
Mo, 26.10. 23:00 90% 45 km
Mo, 26.10. 22:50 90% -
Mo, 26.10. 22:40 90% -
Mo, 26.10. 22:30 92% 45 km
Mo, 26.10. 22:20 92% -
Mo, 26.10. 22:00 91% 40 km
Mo, 26.10. 21:30 92% 45 km
Mo, 26.10. 21:00 92% 40 km
Mo, 26.10. 20:30 88% 50 km
Mo, 26.10. 20:00 88% 45 km
Ortszeit Niederschlagsmenge Niederschlagsart
Mo, 26.10. 19:00 0.2 l/m2 in 12 Std. -
Mo, 26.10. 13:00 0.2 l/m2 in 6 Std. Regen
Mo, 26.10. 7:00 3 l/m2 in 12 Std. Regen
Mo, 26.10. 1:00 0.6 l/m2 in 6 Std. Regen
So, 25.10. 19:00 3 l/m2 in 12 Std. Regen
So, 25.10. 13:00 0.0 l/m2 in 6 Std. -
So, 25.10. 7:00 0.0 l/m2 in 12 Std. -
So, 25.10. 2:00 0.0 l/m2 in 6 Std. -
Ortszeit Niederschlagsmenge Niederschlagsart
Mo, 26.10. 23:10 keine Meldung -
Mo, 26.10. 23:00 0.0 l/m2 in 1 Std. -
Mo, 26.10. 22:50 keine Meldung -
Mo, 26.10. 22:40 keine Meldung -
Mo, 26.10. 22:30 0.0 l/m2 in 1 Std. -
Mo, 26.10. 22:20 keine Meldung -
Mo, 26.10. 22:00 0.0 l/m2 in 1 Std. -
Mo, 26.10. 21:30 0.0 l/m2 in 1 Std. -
Mo, 26.10. 21:00 0.0 l/m2 in 1 Std. -
Mo, 26.10. 20:30 0.0 l/m2 in 1 Std. -
Mo, 26.10. 20:00 0.0 l/m2 in 1 Std. -
Ortszeit Stärke Spitze Richtung
km/h Bft. km/h Grad Sektor
Mo, 26.10. 19:00 4 1 29 220° SW
Mo, 26.10. 13:00 11 2 22 260° W
Mo, 26.10. 7:00 7 2 14 230° SW
Mo, 26.10. 1:00 0 0 11 - -
So, 25.10. 19:00 6 1 30 130° SO
So, 25.10. 13:00 7 2 18 180° S
So, 25.10. 7:00 13 3 22 70° O
So, 25.10. 2:00 4 1 18 50° NO
Ortszeit Stärke Spitze Richtung
km/h Bft. km/h Grad Sektor
Mo, 26.10. 23:10 7 2 - 220° SW
Mo, 26.10. 23:00 7 2 11 210° SW
Mo, 26.10. 22:50 7 2 - 210° SW
Mo, 26.10. 22:40 7 2 - 170° S
Mo, 26.10. 22:30 7 2 7 200° S
Mo, 26.10. 22:20 7 2 - 200° S
Mo, 26.10. 22:00 4 1 11 200° S
Mo, 26.10. 21:30 7 2 11 180° S
Mo, 26.10. 21:00 4 1 14 280° W
Mo, 26.10. 20:30 7 2 14 240° SW
Mo, 26.10. 20:00 6 1 9 290° W
Ortszeit Untergrenze Bedeckung Gattung
total tief tief mittel hoch
Mo, 26.10. 19:00 1500 m 7/8 3/8 - - -
Mo, 26.10. 13:00 720 m 8/8 2/8 - - -
Mo, 26.10. 7:00 180 m 8/8 8/8 - - -
Mo, 26.10. 1:00 240 m 8/8 8/8 - - -
So, 25.10. 19:00 180 m 8/8 8/8 - - -
So, 25.10. 13:00 2700 m 8/8 6/8 - - -
So, 25.10. 7:00 5700 m 8/8 7/8 - - -
So, 25.10. 2:00 1140 m 8/8 8/8 - - -
Ortszeit Bedeckungsgrad in Achtel und Wolkenuntergrenze
Mo, 26.10. 23:10 1(1500m)
Mo, 26.10. 23:00 1(990m) 6(1500m)
Mo, 26.10. 22:50 1(990m) 6(1500m)
Mo, 26.10. 22:40 2(510m) 8(1500m)
Mo, 26.10. 22:30 6(510m) 7(1500m)
Mo, 26.10. 22:20 6(510m) 7(1500m)
Mo, 26.10. 22:00 7(510m)
Mo, 26.10. 21:30 5(540m)
Mo, 26.10. 21:00 1(570m)
Mo, 26.10. 20:30 keine Wolken
Mo, 26.10. 20:00 keine Wolken
Ortszeit Luftdruck NN (hPa) Tendenz (hPa in 3 Std.)
Mo, 26.10. 19:00 1007 + 0,8
Mo, 26.10. 13:00 1005 + 0,2
Mo, 26.10. 7:00 1004 - 0,1
Mo, 26.10. 1:00 1005 - 0,3
So, 25.10. 19:00 1006 + 0,6
So, 25.10. 13:00 1006 - 2,0
So, 25.10. 7:00 1009 - 1,1
So, 25.10. 2:00 1012 - 1,4
Ortszeit Luftdruck NN (hPa) Tendenz (hPa in 3 Std.)
Mo, 26.10. 23:10 1008 keine Meldung
Mo, 26.10. 23:00 1008 + 0,9
Mo, 26.10. 22:50 1008 keine Meldung
Mo, 26.10. 22:40 1008 keine Meldung
Mo, 26.10. 22:30 1008 + 0,7
Mo, 26.10. 22:20 1008 keine Meldung
Mo, 26.10. 22:00 1008 + 0,8
Mo, 26.10. 21:30 1008 + 1,2
Mo, 26.10. 21:00 1008 + 1,2
Mo, 26.10. 20:30 1007 + 1,3
Mo, 26.10. 20:00 1007 + 1,2
Ortszeit Schneehöhe (cm)
Mo, 26.10. 19:00 0
Mo, 26.10. 13:00 0
Mo, 26.10. 7:00 0
Mo, 26.10. 1:00 0
So, 25.10. 19:00 0
So, 25.10. 13:00 0
So, 25.10. 7:00 0
So, 25.10. 2:00 0
Ortszeit Schneehöhe (cm)
Mo, 26.10. 23:10 0
Mo, 26.10. 23:00 0
Mo, 26.10. 22:50 0
Mo, 26.10. 22:40 0
Mo, 26.10. 22:30 0
Mo, 26.10. 22:20 0
Mo, 26.10. 22:00 0
Mo, 26.10. 21:30 0
Mo, 26.10. 21:00 0
Mo, 26.10. 20:30 0
Mo, 26.10. 20:00 0
Link zu dieser Seite / Seite empfehlen

Das Wetter in ...